AKST,Max TemperatureF,Mean TemperatureF,Min TemperatureF,Max Dew PointF,MeanDew PointF,Min DewpointF,Max Humidity, Mean Humidity, Min Humidity, Max Sea Level PressureIn, Mean Sea Level PressureIn, Min Sea Level PressureIn, Max VisibilityMiles, Mean VisibilityMiles, Min VisibilityMiles, Max Wind SpeedMPH, Mean Wind SpeedMPH, Max Gust SpeedMPH,PrecipitationIn, CloudCover, Events, WindDirDegrees
2013-2-1,3,2,0,-2,-4,-8,78,74,66,30.18,30.13,30.07,10,10,10,7,4,,0.00,8,,359
2013-2-2,10,-2,-14,7,-12,-22,100,73,64,30.01,29.81,29.64,10,10,5,8,1,,0.00,3,,71
2013-2-3,14,13,12,9,7,5,79,76,73,29.62,29.60,29.58,10,10,10,6,5,,0.00,8,,343
2013-2-4,10,8,5,0,-3,-6,67,61,56,29.78,29.70,29.63,10,10,10,16,14,25,0.00,5,,350
2013-2-5,5,4,3,-11,-14,-15,47,45,43,29.87,29.86,29.85,10,10,10,23,17,29,0.00,0,,4
2013-2-6,0,0,0,-18,-18,-18,43,43,43,29.92,29.91,29.91,10,10,10,15,14,20,0.00,0,,355
2013-2-7,-16,-17,-18,-26,-27,-29,64,60,58,29.73,29.72,29.71,10,10,10,8,7,,0.00,0,,354
2013-2-8,,,,,,,,,,,,,,,,,,,,,,
2013-2-9,15,-2,-18,1,-10,-26,77,58,31,29.65,29.36,29.17,10,10,10,12,3,,0.00,7,,40
2013-2-10,21,16,10,14,9,1,86,71,53,29.35,29.13,29.07,10,7,1,21,13,28,0.00,7,,32
2013-2-11,10,-5,-20,3,-14,-29,100,73,53,29.76,29.66,29.37,10,9,1,18,11,25,0.00,4,,47
2013-2-12,10,0,-9,3,-5,-18,79,70,56,29.77,29.74,29.71,10,9,2,15,7,20,0.00,8,,20
2013-2-13,19,14,10,16,11,3,93,83,73,29.74,29.71,29.68,10,5,1,13,7,,0.00,8,,20
2013-2-14,24,17,8,21,16,5,100,84,74,29.70,29.54,29.45,10,5,1,10,5,,0.00,8,,23
2013-2-15,8,-2,-13,5,-6,-20,92,80,64,30.11,29.85,29.56,10,5,1,14,8,18,0.00,7,,196
2013-2-16,-5,-10,-16,-11,-18,-27,84,67,53,30.24,30.18,30.12,10,10,5,7,2,,0.00,6,,315
2013-2-17,-2,-9,-18,-15,-23,-29,84,57,44,30.49,30.36,30.24,10,10,10,15,9,,0.00,0,,338
2013-2-18,0,-14,-27,-17,-23,-29,100,54,43,30.49,30.41,30.31,10,10,2,16,10,25,0.00,0,,15
2013-2-19,-5,-20,-36,-11,-23,-29,100,66,37,30.31,30.10,29.87,10,9,0,10,2,,0.00,0,,53
2013-2-20,10,2,-5,-8,-11,-26,71,47,38,29.87,29.75,29.69,10,10,7,23,13,30,0.00,0,,30
2013-2-21,3,-2,-7,-11,-18,-26,51,43,36,29.73,29.68,29.66,10,10,5,23,15,32,0.00,0,,54
2013-2-22,-7,-12,-18,-24,-27,-29,64,50,38,29.75,29.72,29.68,10,10,3,15,9,21,0.00,4,,20
2013-2-23,-13,-16,-20,-26,-29,-45,64,49,22,29.68,29.58,29.52,10,10,7,20,14,24,0.00,4,,20
2013-2-24,-5,-10,-14,-17,-22,-27,77,55,49,29.79,29.65,29.54,10,10,9,8,4,,0.00,7,,16
2013-2-25,-7,-14,-25,-15,-20,-29,77,65,54,30.09,29.91,29.79,10,6,1,12,2,,0.00,7,,248
2013-2-26,-16,-27,-38,-20,-27,-29,100,73,63,30.13,29.99,29.78,10,9,1,7,2,,0.00,0,,280
2013-2-27,1,-11,-23,-2,-18,-29,100,67,37,29.76,29.58,29.46,10,10,2,9,1,,0.00,0,,239
2013-2-28,6,-2,-9,1,-7,-20,100,71,46,29.80,29.57,29.46,10,9,2,9,3,,0.00,5,,203